createdAt,value
2018-09-29T00:00:05.242Z,13.04
2018-09-29T00:00:45.531Z,13.07
2018-09-29T00:01:25.981Z,13.14
2018-09-29T00:02:06.446Z,13.09
2018-09-29T00:02:46.917Z,13.12
2018-09-29T00:03:27.158Z,13.13
2018-09-29T00:04:07.597Z,13.14
2018-09-29T00:04:47.978Z,13.17
2018-09-29T00:05:28.602Z,13.22
2018-09-29T00:06:09.083Z,13.14
2018-09-29T00:06:49.340Z,13.22
2018-09-29T00:07:29.786Z,13.21
2018-09-29T00:08:10.347Z,13.17
2018-09-29T00:08:50.846Z,13.24
2018-09-29T00:09:31.306Z,13.16
2018-09-29T00:10:11.746Z,13.25
2018-09-29T00:10:52.406Z,13.21
2018-09-29T00:11:32.788Z,13.22
2018-09-29T00:12:13.272Z,13.22
2018-09-29T00:12:53.624Z,13.28
2018-09-29T00:13:34.066Z,13.17
2018-09-29T00:14:14.564Z,13.21
2018-09-29T00:14:54.922Z,13.17
2018-09-29T00:15:35.340Z,13.16
2018-09-29T00:16:15.784Z,13.13
2018-09-29T00:16:56.182Z,13.06
2018-09-29T00:17:36.606Z,13.04
2018-09-29T00:18:17.034Z,13.03
2018-09-29T00:18:57.886Z,12.92
2018-09-29T00:19:38.383Z,12.92
2018-09-29T00:20:18.751Z,12.91
2018-09-29T00:20:59.335Z,12.92
2018-09-29T00:21:39.840Z,12.85
2018-09-29T00:22:20.285Z,12.89
2018-09-29T00:23:00.701Z,12.8
2018-09-29T00:23:41.128Z,12.84
2018-09-29T00:24:21.599Z,12.8
2018-09-29T00:25:02.874Z,12.81
2018-09-29T00:25:43.194Z,12.79
2018-09-29T00:26:23.625Z,12.91
2018-09-29T00:27:04.880Z,12.89
2018-09-29T00:27:44.882Z,12.96
2018-09-29T00:28:25.436Z,12.92
2018-09-29T00:29:06.109Z,12.95
2018-09-29T00:29:46.630Z,12.94
2018-09-29T00:30:27.355Z,12.95
2018-09-29T00:31:07.673Z,12.96
2018-09-29T00:31:48.668Z,12.92
2018-09-29T00:32:28.580Z,12.84
2018-09-29T00:33:09.000Z,12.92
2018-09-29T00:33:49.408Z,12.95
2018-09-29T00:34:29.800Z,12.87
2018-09-29T00:35:10.274Z,12.84
2018-09-29T00:35:50.677Z,12.87
2018-09-29T00:36:31.063Z,12.92
2018-09-29T00:37:11.500Z,12.88
2018-09-29T00:37:51.956Z,12.92
2018-09-29T00:38:32.384Z,12.96
2018-09-29T00:39:12.791Z,12.89
2018-09-29T00:39:53.202Z,12.94
2018-09-29T00:40:33.676Z,12.89
2018-09-29T00:41:14.036Z,12.94
2018-09-29T00:41:54.422Z,12.96
2018-09-29T00:42:34.843Z,12.98
2018-09-29T00:43:15.248Z,12.96
2018-09-29T00:43:55.616Z,12.92
2018-09-29T00:44:36.058Z,12.94
2018-09-29T00:45:16.421Z,12.92
2018-09-29T00:45:56.901Z,12.91
2018-09-29T00:46:37.384Z,12.94
2018-09-29T00:47:17.648Z,12.98
2018-09-29T00:47:58.034Z,12.92
2018-09-29T00:48:38.440Z,12.89
2018-09-29T00:49:18.900Z,12.91
2018-09-29T00:51:13.153Z,12.91
2018-09-29T00:51:55.119Z,12.89
2018-09-29T00:52:35.558Z,12.88
2018-09-29T00:53:15.968Z,12.85
2018-09-29T00:53:56.301Z,12.89
2018-09-29T00:54:36.799Z,12.84
2018-09-29T00:55:17.113Z,12.8
2018-09-29T00:55:57.569Z,12.8
2018-09-29T00:56:37.995Z,12.91
2018-09-29T00:57:18.402Z,12.8
2018-09-29T00:57:58.850Z,12.92
2018-09-29T00:58:39.245Z,12.89
2018-09-29T00:59:19.590Z,12.85
2018-09-29T00:59:59.970Z,12.87
2018-09-29T01:00:40.398Z,12.79
2018-09-29T01:01:20.883Z,12.89
2018-09-29T01:02:01.292Z,12.88
2018-09-29T01:02:41.671Z,12.8
2018-09-29T01:03:22.077Z,12.88
2018-09-29T01:04:02.498Z,12.96
2018-09-29T01:04:42.800Z,12.89
2018-09-29T01:05:23.210Z,12.85
2018-09-29T01:06:03.612Z,12.92
2018-09-29T01:06:44.079Z,12.88
2018-09-29T01:07:24.483Z,12.91
2018-09-29T01:08:04.890Z,12.94
2018-09-29T01:08:45.211Z,12.77
2018-09-29T01:09:25.660Z,12.79
2018-09-29T01:10:06.065Z,12.92
2018-09-29T01:10:46.533Z,12.81
2018-09-29T01:11:26.886Z,12.87
2018-09-29T01:12:07.417Z,12.79
2018-09-29T01:12:47.818Z,12.81
2018-09-29T01:13:28.302Z,12.8
2018-09-29T01:14:08.514Z,12.84
2018-09-29T01:14:49.072Z,12.79
2018-09-29T01:15:29.734Z,12.79
2018-09-29T01:16:09.975Z,12.92
2018-09-29T01:16:50.423Z,12.81
2018-09-29T01:17:30.732Z,12.91
2018-09-29T01:18:11.204Z,12.76
2018-09-29T01:18:51.575Z,12.77
2018-09-29T01:19:32.085Z,12.77
2018-09-29T01:20:12.390Z,12.76
2018-09-29T01:20:52.826Z,12.84
2018-09-29T01:21:33.259Z,12.77
2018-09-29T01:22:13.740Z,12.61
2018-09-29T01:22:54.128Z,12.59
2018-09-29T01:23:34.500Z,12.67
2018-09-29T01:24:15.071Z,12.63
2018-09-29T01:24:55.344Z,12.73
2018-09-29T01:25:35.764Z,12.71
2018-09-29T01:26:16.125Z,12.74
2018-09-29T01:26:56.531Z,12.76
2018-09-29T01:27:37.025Z,12.71
2018-09-29T01:28:17.355Z,12.76
2018-09-29T01:28:57.899Z,12.81
2018-09-29T01:29:38.146Z,12.76
2018-09-29T01:30:18.548Z,12.74
2018-09-29T01:30:58.984Z,12.77
2018-09-29T01:31:39.320Z,12.76
2018-09-29T01:32:19.827Z,12.74
2018-09-29T01:33:00.112Z,12.76
2018-09-29T01:33:40.559Z,12.63
2018-09-29T01:34:20.981Z,12.62
2018-09-29T01:35:01.381Z,12.69
2018-09-29T01:35:41.779Z,12.58
2018-09-29T01:36:22.209Z,12.58
2018-09-29T01:37:02.619Z,12.7
2018-09-29T01:37:42.961Z,12.7
2018-09-29T01:38:23.484Z,12.61
2018-09-29T01:39:03.860Z,12.61
2018-09-29T01:39:44.287Z,12.61
2018-09-29T01:40:24.660Z,12.55
2018-09-29T01:41:05.036Z,12.54
2018-09-29T01:41:45.420Z,12.52
2018-09-29T01:43:33.858Z,12.23
2018-09-29T01:44:14.260Z,12.07
2018-09-29T01:44:54.664Z,11.96
2018-09-29T01:45:35.056Z,11.93
2018-09-29T01:46:15.474Z,11.82
2018-09-29T01:46:55.888Z,11.63
2018-09-29T01:47:36.302Z,11.49
2018-09-29T01:48:16.702Z,11.41
2018-09-29T01:48:57.121Z,11.3
2018-09-29T01:49:37.506Z,11.09
2018-09-29T01:51:35.365Z,10.93
2018-09-29T01:52:15.620Z,10.86
2018-09-29T01:52:56.079Z,10.68
2018-09-29T01:53:36.420Z,10.68
2018-09-29T01:55:33.985Z,10.38
2018-09-29T01:56:14.253Z,10.34
2018-09-29T01:56:54.698Z,10.31
2018-09-29T01:57:35.067Z,10.25
2018-09-29T01:58:15.448Z,10.13
2018-09-29T01:58:55.854Z,10.07
2018-09-29T01:59:36.311Z,10.04
2018-09-29T02:00:16.699Z,9.99
2018-09-29T02:00:57.115Z,9.98
2018-09-29T02:01:37.530Z,9.83
2018-09-29T02:02:17.991Z,9.75
2018-09-29T02:02:58.340Z,9.73
2018-09-29T02:03:38.774Z,9.73
2018-09-29T02:05:26.185Z,9.6
2018-09-29T02:06:06.412Z,9.52
2018-09-29T02:06:46.811Z,9.56
2018-09-29T02:07:27.240Z,9.56
2018-09-29T02:08:07.771Z,9.49
2018-09-29T02:08:48.050Z,9.53
2018-09-29T02:09:28.509Z,9.52
2018-09-29T02:10:08.917Z,9.55
2018-09-29T02:10:49.302Z,9.55
2018-09-29T02:11:29.721Z,9.49
2018-09-29T02:13:42.332Z,9.48
2018-09-29T02:14:22.657Z,9.45
2018-09-29T02:15:03.080Z,9.42
2018-09-29T02:15:43.499Z,9.31
2018-09-29T02:16:23.877Z,9.35
2018-09-29T02:17:04.301Z,9.35
2018-09-29T02:19:17.047Z,9.3
2018-09-29T02:19:57.211Z,9.2
2018-09-29T02:20:37.582Z,9.2
2018-09-29T02:21:17.998Z,9.2
2018-09-29T02:21:58.431Z,9.04
2018-09-29T02:22:38.831Z,9.03
2018-09-29T02:23:19.216Z,8.91
2018-09-29T02:23:59.620Z,8.89
2018-09-29T02:24:40.054Z,8.88
2018-09-29T02:25:20.465Z,8.88
2018-09-29T02:26:00.883Z,8.78
2018-09-29T02:26:41.286Z,8.7
2018-09-29T02:27:21.652Z,8.78
2018-09-29T02:28:02.071Z,8.79
2018-09-29T02:28:42.541Z,8.76
2018-09-29T02:29:22.929Z,8.68
2018-09-29T02:30:03.371Z,8.78
2018-09-29T02:30:43.755Z,8.78
2018-09-29T02:31:24.168Z,8.67
2018-09-29T02:32:04.574Z,8.71
2018-09-29T02:32:44.963Z,8.7
2018-09-29T02:33:25.375Z,8.76
2018-09-29T02:34:05.792Z,8.7
2018-09-29T02:34:46.201Z,8.71
2018-09-29T02:35:26.591Z,8.64
2018-09-29T02:36:06.978Z,8.64
2018-09-29T02:36:47.391Z,8.64
2018-09-29T02:37:27.789Z,8.67
2018-09-29T02:38:08.208Z,8.64
2018-09-29T02:38:48.639Z,8.7
2018-09-29T02:39:29.036Z,8.54
2018-09-29T02:40:09.439Z,8.61
2018-09-29T02:40:49.874Z,8.61
2018-09-29T02:41:30.228Z,8.54
2018-09-29T02:42:10.651Z,8.64
2018-09-29T02:42:51.087Z,8.73
2018-09-29T02:44:38.667Z,8.76
2018-09-29T02:45:18.996Z,8.79
2018-09-29T02:45:59.376Z,8.85
2018-09-29T02:46:39.797Z,8.83
2018-09-29T02:47:20.199Z,8.86
2018-09-29T02:48:00.597Z,8.91
2018-09-29T02:48:41.014Z,8.78
2018-09-29T02:49:21.454Z,8.79
2018-09-29T02:50:01.886Z,8.78
2018-09-29T02:50:42.330Z,8.76
2018-09-29T02:51:22.756Z,8.75
2018-09-29T02:53:15.490Z,8.73
2018-09-29T02:53:56.536Z,8.73
2018-09-29T02:54:36.952Z,8.75
2018-09-29T02:55:17.376Z,8.73
2018-09-29T02:55:57.830Z,8.65
2018-09-29T02:56:38.183Z,8.63
2018-09-29T02:57:18.579Z,8.64
2018-09-29T02:57:59.020Z,8.57
2018-09-29T02:58:39.392Z,8.54
2018-09-29T02:59:19.839Z,8.6
2018-09-29T03:00:00.198Z,8.58
2018-09-29T03:00:40.577Z,8.47
2018-09-29T03:02:39.912Z,8.4
2018-09-29T03:03:20.726Z,8.37
2018-09-29T03:04:01.116Z,8.36
2018-09-29T03:04:41.521Z,8.34
2018-09-29T03:05:21.909Z,8.36
2018-09-29T03:07:35.857Z,8.25
2018-09-29T03:08:16.048Z,8.18
2018-09-29T03:08:56.412Z,8.31
2018-09-29T03:09:36.799Z,8.18
2018-09-29T03:10:17.202Z,8.39
2018-09-29T03:10:57.649Z,8.32
2018-09-29T03:11:38.087Z,8.36
2018-09-29T03:12:18.508Z,8.29
2018-09-29T03:12:58.861Z,8.34
2018-09-29T03:13:39.257Z,8.24
2018-09-29T03:14:19.690Z,8.28
2018-09-29T03:15:00.099Z,8.36
2018-09-29T03:17:14.344Z,8.2
2018-09-29T03:17:53.668Z,8.21
2018-09-29T03:18:34.063Z,8.13
2018-09-29T03:19:14.543Z,8.04
2018-09-29T03:19:54.950Z,8.06
2018-09-29T03:20:35.324Z,8.09
2018-09-29T03:21:15.711Z,8.09
2018-09-29T03:21:56.147Z,8
2018-09-29T03:22:36.539Z,8.09
2018-09-29T03:23:17.041Z,7.91
2018-09-29T03:23:57.315Z,7.96
2018-09-29T03:25:55.722Z,7.96
2018-09-29T03:26:35.257Z,7.85
2018-09-29T03:27:15.686Z,7.82
2018-09-29T03:27:56.112Z,7.86
2018-09-29T03:28:36.535Z,7.79
2018-09-29T03:29:16.925Z,7.79
2018-09-29T03:29:57.338Z,7.77
2018-09-29T03:30:37.763Z,7.71
2018-09-29T03:31:18.187Z,7.69
2018-09-29T03:31:58.777Z,7.71
2018-09-29T03:32:39.031Z,7.69
2018-09-29T03:33:19.423Z,7.7
2018-09-29T03:35:32.193Z,7.76
2018-09-29T03:36:12.525Z,7.69
2018-09-29T03:36:52.883Z,7.67
2018-09-29T03:37:33.302Z,7.62
2018-09-29T03:38:13.742Z,7.67
2018-09-29T03:40:02.065Z,7.6
2018-09-29T03:40:42.199Z,7.6
2018-09-29T03:41:22.603Z,7.69
2018-09-29T03:42:02.993Z,7.71
2018-09-29T03:42:43.402Z,7.77
2018-09-29T03:43:23.805Z,7.82
2018-09-29T03:44:04.265Z,7.84
2018-09-29T03:44:44.675Z,7.86
2018-09-29T03:45:25.094Z,7.85
2018-09-29T03:46:05.502Z,7.84
2018-09-29T03:46:45.929Z,7.79
2018-09-29T03:47:26.271Z,7.76
2018-09-29T03:48:06.689Z,7.73
2018-09-29T03:48:47.091Z,7.69
2018-09-29T03:49:27.520Z,7.82
2018-09-29T03:50:07.970Z,7.74
2018-09-29T03:50:48.419Z,7.66
2018-09-29T03:51:28.801Z,7.74
2018-09-29T03:52:09.200Z,7.69
2018-09-29T03:52:49.625Z,7.69
2018-09-29T03:53:30.067Z,7.67
2018-09-29T03:54:10.567Z,7.71
2018-09-29T03:54:50.970Z,7.76
2018-09-29T03:55:31.389Z,7.74
2018-09-29T03:56:11.867Z,7.77
2018-09-29T03:56:52.217Z,7.77
2018-09-29T03:57:32.571Z,7.88
2018-09-29T03:58:13.015Z,7.79
2018-09-29T03:58:53.402Z,7.82
2018-09-29T03:59:33.804Z,7.79
2018-09-29T04:00:14.214Z,7.71
2018-09-29T04:00:54.712Z,7.67
2018-09-29T04:01:35.060Z,7.69
2018-09-29T04:02:15.463Z,7.69
2018-09-29T04:02:55.934Z,7.74
2018-09-29T04:03:36.336Z,7.63
2018-09-29T04:04:16.735Z,7.67
2018-09-29T04:04:57.110Z,7.57
2018-09-29T04:05:37.541Z,7.7
2018-09-29T04:07:36.664Z,7.63
2018-09-29T04:08:16.809Z,7.51
2018-09-29T04:08:57.204Z,7.47
2018-09-29T04:09:37.619Z,7.57
2018-09-29T04:10:19.705Z,7.48
2018-09-29T04:11:00.141Z,7.39
2018-09-29T04:11:40.546Z,7.29
2018-09-29T04:12:20.981Z,7.33
2018-09-29T04:13:01.383Z,7.3
2018-09-29T04:13:41.870Z,7.21
2018-09-29T04:14:22.228Z,7.14
2018-09-29T04:15:02.627Z,7.04
2018-09-29T04:15:42.998Z,6.9
2018-09-29T04:16:23.420Z,6.83
2018-09-29T04:17:03.808Z,6.78
2018-09-29T04:17:44.204Z,6.76
2018-09-29T04:18:24.620Z,6.76
2018-09-29T04:19:05.031Z,6.68
2018-09-29T04:19:45.417Z,6.72
2018-09-29T04:20:25.825Z,6.71
2018-09-29T04:21:06.213Z,6.65
2018-09-29T04:21:46.656Z,6.64
2018-09-29T04:22:27.049Z,6.71
2018-09-29T04:24:17.610Z,6.69
2018-09-29T04:24:59.578Z,6.55
2018-09-29T04:25:39.925Z,6.58
2018-09-29T04:26:20.345Z,6.57
2018-09-29T04:27:00.756Z,6.57
2018-09-29T05:07:12.326Z,4.9
2018-09-29T05:08:04.954Z,4.96
2018-09-29T05:08:46.624Z,4.87
2018-09-29T05:09:32.974Z,4.88
2018-09-29T05:10:13.294Z,4.91
2018-09-29T05:10:53.705Z,4.86
2018-09-29T05:11:34.106Z,4.83
2018-09-29T05:12:14.525Z,4.83
2018-09-29T05:12:54.927Z,4.8
2018-09-29T05:13:35.406Z,4.83
2018-09-29T05:14:15.798Z,4.84
2018-09-29T05:14:56.163Z,4.87
2018-09-29T05:15:36.550Z,4.84
2018-09-29T05:16:16.959Z,4.91
2018-09-29T05:16:57.347Z,4.88
2018-09-29T05:17:37.746Z,4.87
2018-09-29T05:18:18.151Z,4.88
2018-09-29T05:18:58.547Z,4.93
2018-09-29T05:19:38.948Z,4.88
2018-09-29T05:20:19.349Z,4.94
2018-09-29T05:20:59.778Z,5.17
2018-09-29T05:21:40.219Z,5.19
2018-09-29T05:22:20.578Z,5.11
2018-09-29T05:24:35.840Z,5.3
2018-09-29T05:25:14.835Z,5.3
2018-09-29T05:25:55.215Z,5.38
2018-09-29T05:26:35.606Z,5.32
2018-09-29T05:28:35.270Z,5.35
2018-09-29T05:30:10.091Z,5.4
2018-09-29T05:30:50.125Z,5.41
2018-09-29T05:31:30.437Z,5.45
2018-09-29T05:32:10.844Z,5.41
2018-09-29T05:32:51.241Z,5.48
2018-09-29T05:33:31.664Z,5.49
2018-09-29T05:34:12.081Z,5.58
2018-09-29T05:34:52.496Z,5.65
2018-09-29T05:35:32.881Z,5.55
2018-09-29T05:36:13.305Z,5.66
2018-09-29T05:36:53.700Z,5.69
2018-09-29T05:37:34.106Z,5.7
2018-09-29T05:38:14.509Z,5.7
2018-09-29T05:38:54.911Z,5.73
2018-09-29T05:39:35.339Z,5.85
2018-09-29T05:40:15.771Z,5.87
2018-09-29T05:40:56.170Z,5.96
2018-09-29T05:41:36.564Z,5.9
2018-09-29T05:42:16.992Z,5.93
2018-09-29T05:42:57.395Z,6.05
2018-09-29T05:43:37.790Z,6.13
2018-09-29T05:44:18.201Z,6.14
2018-09-29T05:44:58.629Z,6.21
2018-09-29T05:45:39.000Z,6.25
2018-09-29T05:46:19.410Z,6.3
2018-09-29T05:46:59.807Z,6.39
2018-09-29T05:47:40.233Z,6.45
2018-09-29T05:48:20.840Z,6.51
2018-09-29T05:49:01.055Z,6.48
2018-09-29T05:49:41.433Z,6.57
2018-09-29T05:50:21.834Z,6.65
2018-09-29T05:51:02.289Z,6.64
2018-09-29T05:51:42.668Z,6.75
2018-09-29T05:52:23.023Z,6.89
2018-09-29T05:53:03.439Z,7.05
2018-09-29T05:53:43.876Z,7.19
2018-09-29T05:54:24.258Z,7.3
2018-09-29T05:55:04.658Z,7.23
2018-09-29T05:55:45.067Z,7.37
2018-09-29T05:56:25.444Z,7.48
2018-09-29T05:57:05.849Z,7.45
2018-09-29T05:57:46.267Z,7.47
2018-09-29T05:58:26.716Z,7.57
2018-09-29T05:59:07.100Z,7.58
2018-09-29T05:59:47.474Z,7.76
2018-09-29T06:00:27.903Z,7.84
2018-09-29T06:01:08.280Z,7.91
2018-09-29T06:01:48.688Z,7.92
2018-09-29T06:03:46.384Z,8.12
2018-09-29T06:04:32.790Z,8.18
2018-09-29T06:05:11.016Z,8.22
2018-09-29T06:05:51.387Z,8.31
2018-09-29T06:06:31.701Z,8.27
2018-09-29T06:07:12.222Z,8.27
2018-09-29T06:07:52.519Z,8.31
2018-09-29T06:08:32.951Z,8.4
2018-09-29T06:09:13.337Z,8.36
2018-09-29T06:09:53.723Z,8.52
2018-09-29T06:10:34.195Z,8.52
2018-09-29T06:11:14.555Z,8.6
2018-09-29T06:13:02.969Z,8.93
2018-09-29T06:13:42.681Z,9
2018-09-29T06:14:23.136Z,9.06
2018-09-29T06:15:03.520Z,9.16
2018-09-29T06:15:43.916Z,9.17
2018-09-29T06:16:24.354Z,9.24
2018-09-29T06:17:04.767Z,9.32
2018-09-29T06:17:45.173Z,9.32
2018-09-29T06:18:25.628Z,9.27
2018-09-29T06:19:06.008Z,9.35
2018-09-29T06:21:18.823Z,9.68
2018-09-29T06:24:56.051Z,10.04
2018-09-29T06:25:36.412Z,9.99
2018-09-29T06:26:16.821Z,10.04
2018-09-29T06:26:57.240Z,10.04
2018-09-29T06:27:37.654Z,9.98
2018-09-29T06:28:18.069Z,10.04
2018-09-29T06:29:01.094Z,10.25
2018-09-29T06:29:41.526Z,10.34
2018-09-29T06:30:21.915Z,10.32
2018-09-29T06:31:02.305Z,10.44
2018-09-29T06:31:42.758Z,10.57
2018-09-29T06:32:23.157Z,10.76
2018-09-29T06:33:03.579Z,10.7
2018-09-29T06:33:44.012Z,10.93
2018-09-29T06:34:24.441Z,11.17
2018-09-29T06:35:04.859Z,11.19
2018-09-29T06:35:45.252Z,11.41
2018-09-29T06:36:25.645Z,11.57
2018-09-29T06:37:06.063Z,11.72
2018-09-29T06:37:46.480Z,11.97
2018-09-29T06:38:26.927Z,12.07
2018-09-29T06:40:20.014Z,12.4
2018-09-29T06:41:01.541Z,12.41
2018-09-29T06:41:41.097Z,12.4
2018-09-29T06:42:21.568Z,12.34
2018-09-29T06:43:01.970Z,12.3
2018-09-29T06:43:42.390Z,12.3
2018-09-29T06:44:22.799Z,12.33
2018-09-29T06:45:03.235Z,12.37
2018-09-29T06:45:44.065Z,12.15
2018-09-29T06:46:24.612Z,12.12
2018-09-29T06:47:05.017Z,12.11
2018-09-29T06:48:57.632Z,12.26
2018-09-29T06:49:38.240Z,12.33
2018-09-29T06:50:18.608Z,12.4
2018-09-29T06:50:59.034Z,12.43
2018-09-29T06:51:39.469Z,12.41
2018-09-29T06:52:19.825Z,12.48
2018-09-29T06:55:00.945Z,12.59
2018-09-29T06:55:41.278Z,12.56
2018-09-29T06:56:21.626Z,12.54
2018-09-29T06:57:02.056Z,12.55
2018-09-29T06:58:50.438Z,12.58
2018-09-29T06:59:29.864Z,12.7
2018-09-29T07:00:10.223Z,12.61
2018-09-29T07:00:50.644Z,12.71
2018-09-29T07:01:31.071Z,12.58
2018-09-29T07:02:11.521Z,12.71
2018-09-29T07:02:51.975Z,12.73
2018-09-29T07:03:32.333Z,12.74
2018-09-29T07:04:12.749Z,12.85
2018-09-29T07:04:53.163Z,12.81
2018-09-29T07:05:33.552Z,12.94
2018-09-29T07:06:13.949Z,12.96
2018-09-29T07:06:54.353Z,13.06
2018-09-29T07:07:34.759Z,13.06
2018-09-29T07:08:15.145Z,13.17
2018-09-29T07:08:55.577Z,13.27
2018-09-29T07:09:35.969Z,13.24
2018-09-29T07:10:16.406Z,13.27
2018-09-29T07:10:56.788Z,13.29
2018-09-29T07:11:37.175Z,13.29
2018-09-29T07:12:17.585Z,13.21
2018-09-29T07:12:58.012Z,13.17
2018-09-29T07:13:38.390Z,13.17
2018-09-29T07:14:18.813Z,13.17
2018-09-29T07:14:59.237Z,13.19
2018-09-29T07:15:39.642Z,13.17
2018-09-29T07:16:20.050Z,13.27
2018-09-29T07:17:00.457Z,13.25
2018-09-29T07:17:40.889Z,13.22
2018-09-29T07:18:21.279Z,13.17
2018-09-29T07:20:14.004Z,13.35
2018-09-29T07:20:54.257Z,13.43
2018-09-29T07:21:34.740Z,13.48
2018-09-29T07:22:15.049Z,13.41
2018-09-29T07:22:55.422Z,13.55
2018-09-29T07:23:35.831Z,13.57
2018-09-29T07:25:34.643Z,13.8
2018-09-29T07:26:14.339Z,13.87
2018-09-29T07:26:54.738Z,13.86
2018-09-29T07:27:35.169Z,13.84
2018-09-29T07:28:15.625Z,13.93
2018-09-29T07:28:55.974Z,13.93
2018-09-29T07:29:36.434Z,14.16
2018-09-29T07:30:16.819Z,14.12
2018-09-29T07:30:57.242Z,14.21
2018-09-29T07:31:37.723Z,14.42
2018-09-29T07:32:18.126Z,14.63
2018-09-29T07:32:58.554Z,14.67
2018-09-29T07:33:38.953Z,14.94
2018-09-29T07:35:53.536Z,15.81
2018-09-29T07:39:00.234Z,16.08
2018-09-29T07:39:40.619Z,16.04
2018-09-29T07:40:21.006Z,16.06
2018-09-29T07:41:01.422Z,16.1
2018-09-29T07:41:41.809Z,16.11
2018-09-29T07:42:22.221Z,16.07
2018-09-29T07:43:02.625Z,16.08
2018-09-29T07:43:43.017Z,16.01
2018-09-29T07:44:23.420Z,15.93
2018-09-29T07:45:03.822Z,16.1
2018-09-29T07:45:44.260Z,16.3
2018-09-29T07:46:24.675Z,16.65
2018-09-29T07:47:05.083Z,16.84
2018-09-29T07:47:45.471Z,16.88
2018-09-29T07:48:25.891Z,17.07
2018-09-29T07:49:06.372Z,17.27
2018-09-29T07:49:46.772Z,17.42
2018-09-29T07:50:27.239Z,17.49
2018-09-29T07:51:07.709Z,17.74
2018-09-29T07:51:48.063Z,17.79
2018-09-29T07:52:28.494Z,17.71
2018-09-29T07:53:08.858Z,17.71
2018-09-29T07:53:49.279Z,17.6
2018-09-29T07:54:29.686Z,17.7
2018-09-29T07:55:10.094Z,17.74
2018-09-29T07:55:50.483Z,17.74
2018-09-29T07:56:30.860Z,17.68
2018-09-29T07:57:11.255Z,17.7
2018-09-29T07:57:51.652Z,17.73
2018-09-29T07:58:32.143Z,17.74
2018-09-29T07:59:12.470Z,17.81
2018-09-29T07:59:52.867Z,17.8
2018-09-29T08:00:33.294Z,17.74
2018-09-29T08:01:13.680Z,17.71
2018-09-29T08:01:54.079Z,17.76
2018-09-29T08:02:34.498Z,17.95
2018-09-29T08:03:14.911Z,18.17
2018-09-29T08:03:55.328Z,18.25
2018-09-29T08:04:36.474Z,18.42
2018-09-29T08:05:16.834Z,18.71
2018-09-29T08:05:57.208Z,18.78
2018-09-29T08:06:37.619Z,18.84
2018-09-29T08:07:18.050Z,18.99
2018-09-29T08:07:58.718Z,19.01
2018-09-29T08:08:39.088Z,19.02
2018-09-29T08:09:19.503Z,18.96
2018-09-29T08:10:01.578Z,18.9
2018-09-29T08:10:41.993Z,18.71
2018-09-29T08:11:22.388Z,18.86
2018-09-29T08:12:02.806Z,18.83
2018-09-29T08:12:43.207Z,18.84
2018-09-29T08:13:23.606Z,18.84
2018-09-29T08:14:04.039Z,18.89
2018-09-29T08:14:44.482Z,18.82
2018-09-29T08:15:24.912Z,18.84
2018-09-29T08:16:05.336Z,18.75
2018-09-29T08:16:45.690Z,18.74
2018-09-29T08:17:26.174Z,18.74
2018-09-29T08:18:06.562Z,18.6
2018-09-29T08:18:46.935Z,18.25
2018-09-29T08:19:27.332Z,18.36
2018-09-29T08:20:07.721Z,18.59
2018-09-29T08:20:48.154Z,18.62
2018-09-29T08:21:28.522Z,18.83
2018-09-29T08:22:08.955Z,18.94
2018-09-29T08:24:07.307Z,19.35
2018-09-29T08:29:10.114Z,19.83
2018-09-29T08:32:00.649Z,20.44
2018-09-29T08:32:41.049Z,20.46
2018-09-29T08:33:21.443Z,20.5
2018-09-29T08:34:01.856Z,20.46
2018-09-29T08:34:42.338Z,20.58
2018-09-29T08:35:22.684Z,20.64
2018-09-29T08:36:03.076Z,20.57
2018-09-29T08:36:43.497Z,20.64
2018-09-29T08:37:24.015Z,20.76
2018-09-29T08:38:19.197Z,20.83
2018-09-29T08:38:59.605Z,20.83
2018-09-29T08:39:40.028Z,20.71
2018-09-29T08:40:20.483Z,20.76
2018-09-29T08:41:00.929Z,20.75
2018-09-29T08:41:41.332Z,20.94
2018-09-29T08:42:21.754Z,21.11
2018-09-29T08:43:02.168Z,21.22
2018-09-29T08:43:42.559Z,21.21
2018-09-29T08:44:23.010Z,21.34
2018-09-29T08:45:03.412Z,21.61
2018-09-29T08:45:43.802Z,21.66
2018-09-29T08:46:24.245Z,21.67
2018-09-29T08:47:04.839Z,21.75
2018-09-29T08:47:48.734Z,21.82
2018-09-29T08:48:29.113Z,21.9
2018-09-29T08:49:13.279Z,22.04
2018-09-29T08:50:49.661Z,22.33
2018-09-29T08:52:50.290Z,22.23
2018-09-29T08:53:33.337Z,22.31
2018-09-29T08:54:13.840Z,22.31
2018-09-29T08:54:54.194Z,22.31
2018-09-29T08:55:34.614Z,22.38
2018-09-29T08:56:15.044Z,22.33
2018-09-29T08:56:55.464Z,22.33
2018-09-29T08:57:36.210Z,22.36
2018-09-29T08:58:16.719Z,22.31
2018-09-29T08:58:57.079Z,22.38
2018-09-29T08:59:37.564Z,22.44
2018-09-29T09:00:18.112Z,22.57
2018-09-29T09:00:58.471Z,22.41
2018-09-29T09:01:38.898Z,22.38
2018-09-29T09:02:19.442Z,22.38
2018-09-29T09:02:59.849Z,22.31
2018-09-29T09:03:40.349Z,22.42
2018-09-29T09:04:20.778Z,22.48
2018-09-29T09:05:01.232Z,22.49
2018-09-29T09:05:41.720Z,22.38
2018-09-29T09:06:22.298Z,22.42
2018-09-29T09:07:02.796Z,22.59
2018-09-29T09:07:43.765Z,22.63
2018-09-29T09:08:24.114Z,22.49
2018-09-29T09:09:04.564Z,22.59
2018-09-29T09:09:44.996Z,22.57
2018-09-29T09:10:26.027Z,22.64
2018-09-29T09:12:39.961Z,22.56
2018-09-29T09:13:19.604Z,22.42
2018-09-29T09:14:00.012Z,22.09
2018-09-29T09:14:40.466Z,21.81
2018-09-29T09:15:20.878Z,21.71
2018-09-29T09:16:01.282Z,21.61
2018-09-29T09:16:41.679Z,21.59
2018-09-29T09:17:22.092Z,21.51
2018-09-29T09:18:02.532Z,21.66
2018-09-29T09:18:42.900Z,21.82
2018-09-29T09:19:23.412Z,21.79
2018-09-29T09:20:03.717Z,21.85
2018-09-29T09:20:44.121Z,21.74
2018-09-29T09:21:24.523Z,21.74
2018-09-29T09:22:04.909Z,21.64
2018-09-29T09:22:45.370Z,21.3
2018-09-29T09:23:25.802Z,20.94
2018-09-29T09:24:06.375Z,20.42
2018-09-29T09:24:47.012Z,20.16
2018-09-29T09:25:27.442Z,20.17
2018-09-29T09:26:07.800Z,20.02
2018-09-29T09:28:05.233Z,19.67
2018-09-29T09:28:46.456Z,19.39
2018-09-29T09:29:26.875Z,19.2
2018-09-29T09:30:07.324Z,19.17
2018-09-29T09:30:49.296Z,19.39
2018-09-29T09:31:29.101Z,19.79
2018-09-29T09:32:09.799Z,19.98
2018-09-29T09:32:50.069Z,20.2
2018-09-29T09:33:30.486Z,20.42
2018-09-29T09:34:10.993Z,20.53
2018-09-29T09:34:51.383Z,20.48
2018-09-29T09:35:31.810Z,20.31
2018-09-29T09:36:12.228Z,20.13
2018-09-29T09:36:52.646Z,20.27
2018-09-29T09:37:33.038Z,20.5
2018-09-29T09:38:13.426Z,20.82
2018-09-29T09:38:53.860Z,21.01
2018-09-29T09:39:34.374Z,21.22
2018-09-29T09:40:14.783Z,21.38
2018-09-29T09:40:55.135Z,21.48
2018-09-29T09:41:35.613Z,21.3
2018-09-29T09:42:16.024Z,20.64
2018-09-29T09:42:56.402Z,20.25
2018-09-29T09:43:36.954Z,19.97
2018-09-29T09:44:17.379Z,19.58
2018-09-29T09:44:57.890Z,19.38
2018-09-29T09:45:38.339Z,18.96
2018-09-29T09:46:18.828Z,18.72
2018-09-29T09:46:59.218Z,18.42
2018-09-29T09:49:16.950Z,18.1
2018-09-29T09:54:26.770Z,19.78
2018-09-29T09:55:07.174Z,20.04
2018-09-29T09:55:47.608Z,20.25
2018-09-29T09:56:28.039Z,20.4
2018-09-29T09:57:08.571Z,20.33
2018-09-29T09:57:48.989Z,20.2
2018-09-29T09:58:29.439Z,20.08
2018-09-29T09:59:09.927Z,19.92
2018-09-29T10:01:23.117Z,18.97
2018-09-29T10:02:03.877Z,18.69
2018-09-29T10:02:44.754Z,18.57
2018-09-29T10:03:26.661Z,18.49
2018-09-29T10:04:07.101Z,18.36
2018-09-29T10:04:47.491Z,18.34
2018-09-29T10:05:27.936Z,18.5
2018-09-29T10:09:16.564Z,19.06
2018-09-29T10:09:57.003Z,19.05
2018-09-29T10:10:37.932Z,18.94
2018-09-29T10:11:18.542Z,18.94
2018-09-29T10:11:59.035Z,19.07
2018-09-29T10:12:39.358Z,19.02
2018-09-29T10:13:19.810Z,18.72
2018-09-29T10:14:00.268Z,18.65
2018-09-29T10:19:37.867Z,19.57
2018-09-29T10:20:18.449Z,19.52
2018-09-29T10:20:58.770Z,19.47
2018-09-29T10:21:41.028Z,19.47
2018-09-29T10:22:21.508Z,19.87
2018-09-29T10:23:06.023Z,20.02
2018-09-29T10:23:46.493Z,20.2
2018-09-29T10:24:27.091Z,20.23
2018-09-29T10:25:07.512Z,20.13
2018-09-29T10:25:48.046Z,20.19
2018-09-29T10:26:29.378Z,20.05
2018-09-29T10:27:09.405Z,19.87
2018-09-29T11:07:11.162Z,20.3
2018-09-29T11:07:56.973Z,19.89
2018-09-29T11:08:37.766Z,19.57
2018-09-29T11:09:18.468Z,19.27
2018-09-29T11:09:58.946Z,18.9
2018-09-29T11:10:39.361Z,18.71
2018-09-29T11:11:19.948Z,18.69
2018-09-29T11:12:00.393Z,18.9
2018-09-29T11:12:40.699Z,19.02
2018-09-29T11:15:35.986Z,20.1
2018-09-29T11:16:15.389Z,20.1
2018-09-29T11:16:55.864Z,20
2018-09-29T11:17:36.186Z,20.04
2018-09-29T11:18:16.988Z,20.16
2018-09-29T11:18:57.709Z,20.08
2018-09-29T11:19:38.107Z,20.04
2018-09-29T11:20:18.520Z,19.97
2018-09-29T11:20:59.108Z,20.05
2018-09-29T11:21:39.325Z,20.17
2018-09-29T11:22:19.730Z,20.53
2018-09-29T11:23:02.911Z,20.9
2018-09-29T11:23:44.370Z,20.96
2018-09-29T11:24:25.544Z,20.81